This is the latest recevied weather packets stored in our database for station/object N3WMC. If no packets are shown the sender has not sent any weather packets the latest 10 day(s).
| Time | Temp. | Humidity | Pressure | Rain* | Wind** | Luminosity | Snow |
|---|---|---|---|---|---|---|---|
| 1787439939 | 18.33° C | 98% | 1012.8 hPa | 6.6 mm | - | 4 W/m² | - |
| 1787439635 | 18.33° C | 98% | 1012.8 hPa | 6.1 mm | - | 4 W/m² | - |
| 1787439331 | 18.33° C | 98% | 1013.1 hPa | 6.1 mm | - | 4 W/m² | - |
| 1787439026 | 18.33° C | 98% | 1013.2 hPa | 6.1 mm | - | 4 W/m² | - |
| 1787438721 | 18.33° C | 98% | 1013.1 hPa | 7.87 mm | - | 4 W/m² | - |
| 1787438420 | 18.33° C | 97% | 1013.1 hPa | 6.6 mm | - | 3 W/m² | - |
| 1787438115 | 18.33° C | 97% | 1012.9 hPa | 6.1 mm | - | 3 W/m² | - |
| 1787437811 | 18.33° C | 97% | 1013 hPa | 6.1 mm | - | 2 W/m² | - |
| 1787437507 | 18.33° C | 97% | 1013.1 hPa | 7.11 mm | - | 2 W/m² | - |
| 1787437203 | 18.33° C | 97% | 1013 hPa | 8.89 mm | - | 2 W/m² | - |
| 1787436898 | 18.33° C | 96% | 1013.1 hPa | 9.65 mm | - | 2 W/m² | - |
| 1787436594 | 18.33° C | 96% | 1012.9 hPa | 36.58 mm | - | 2 W/m² | - |
| 1787436289 | 18.33° C | 95% | 1013.2 hPa | 43.69 mm | - | 2 W/m² | - |
| 1787435984 | 18.89° C | 93% | 1013.3 hPa | 13.72 mm | - | 1 W/m² | - |
| 1787435680 | 19.44° C | 90% | 1013.1 hPa | 0 mm | - | 1 W/m² | - |
| 1787435376 | 20° C | 89% | 1012.6 hPa | 0 mm | - | 1 W/m² | - |
| 1787435072 | 21.11° C | 89% | 1012 hPa | 0 mm | - | 5 W/m² | - |
| 1787434767 | 21.11° C | 90% | 1011.4 hPa | 0 mm | - | 12 W/m² | - |
| 1787434464 | 21.11° C | 90% | 1011.4 hPa | 0 mm | - | 17 W/m² | - |
| 1787434159 | 21.11° C | 90% | 1011.3 hPa | 0 mm | - | 27 W/m² | - |
| 1787433855 | 21.11° C | 90% | 1011.3 hPa | 0 mm | - | 28 W/m² | - |
| 1787433550 | 21.67° C | 89% | 1011.4 hPa | 0 mm | - | 20 W/m² | - |
| 1787433245 | 22.22° C | 87% | 1011.6 hPa | 0 mm | - | 16 W/m² | - |
| 1787432943 | 23.89° C | 84% | 1011.7 hPa | 0 mm | - | 11 W/m² | - |
| 1787432638 | 25.56° C | 74% | 1011.5 hPa | 0 mm | - | 10 W/m² | - |
* Rain latest hour (hover to see other rain measurements)
** Current wind speed in m/s (hover to see current wind gust speed)